Archival Weather

Tokyo Intl

Tokyo Intl, Japan (RJTT)

Report from: Friday, June 24, 2022 12:00 AM JST
Current time: Tuesday, August 16, 2022 10:15 AM JST

Current weather
Weather history
Weather forecast

Temperature23.0°C (73.4°F)
Dew point22.0°C (71.6°F)
Winds 5 kts (2.6 m/s, 5.8 mph) South-Southeast (150°)
Visibility6.2 mi. (10 km)
Clouds Few clouds 1,000 ft. (305 m)
Ceiling: Broken clouds 2,000 ft. (610 m)
Altimeter29.83 in.Hg (1010 mB)
Relative humidity94 %
Density altitude1,396 ft. (425 m)
Remarks No significant changes expected in the next two hours
Flight conditions Marginal Visual Meteorological Conditions
Raw dataRJTT 231500Z 15005KT 9999 FEW010 BKN020 23/22 Q1010 NOSIG RMK 1ST010 7SC020 A2984
An error has occurred. This application may no longer respond until reloaded. Reload 🗙